sensor_id;sensor_type;location;lat;lon;timestamp;pressure;altitude;pressure_sealevel;temperature;humidity
59375;BME280;45172;55.006;73.460;2023-11-19T06:25:10;100790.56;;;-7.21;100.00
59375;BME280;45172;55.006;73.460;2023-11-19T06:27:37;100792.72;;;-7.26;100.00
59375;BME280;45172;55.006;73.460;2023-11-19T06:30:03;100808.44;;;-7.23;100.00
59375;BME280;45172;55.006;73.460;2023-11-19T06:32:29;100765.81;;;-7.38;100.00
59375;BME280;45172;55.006;73.460;2023-11-19T06:34:56;100802.06;;;-7.18;100.00
59375;BME280;45172;55.006;73.460;2023-11-19T06:37:22;100822.69;;;-7.26;100.00
59375;BME280;45172;55.006;73.460;2023-11-19T06:39:48;100811.09;;;-7.40;100.00
59375;BME280;45172;55.006;73.460;2023-11-19T06:42:15;100815.91;;;-7.35;100.00
59375;BME280;45172;55.006;73.460;2023-11-19T06:44:41;100839.25;;;-7.42;100.00
59375;BME280;45172;55.006;73.460;2023-11-19T06:47:07;100827.44;;;-7.40;100.00
59375;BME280;45172;55.006;73.460;2023-11-19T06:49:33;100847.22;;;-7.30;100.00
59375;BME280;45172;55.006;73.460;2023-11-19T06:51:59;100851.78;;;-7.27;100.00
59375;BME280;45172;55.006;73.460;2023-11-19T06:54:26;100854.78;;;-7.23;100.00
59375;BME280;45172;55.006;73.460;2023-11-19T06:56:52;100829.56;;;-7.45;100.00
59375;BME280;45172;55.006;73.460;2023-11-19T06:59:18;100831.53;;;-7.42;100.00
59375;BME280;45172;55.006;73.460;2023-11-19T07:01:44;100868.16;;;-7.27;100.00
59375;BME280;45172;55.006;73.460;2023-11-19T07:04:11;100865.16;;;-7.40;100.00
59375;BME280;45172;55.006;73.460;2023-11-19T07:06:38;100869.44;;;-7.50;100.00
59375;BME280;45172;55.006;73.460;2023-11-19T07:09:07;100880.31;;;-7.52;100.00
59375;BME280;45172;55.006;73.460;2023-11-19T07:11:38;100863.84;;;-7.63;100.00
59375;BME280;45172;55.006;73.460;2023-11-19T07:14:05;100888.81;;;-7.53;100.00
59375;BME280;45172;55.006;73.460;2023-11-19T07:16:33;100901.25;;;-7.58;100.00
59375;BME280;45172;55.006;73.460;2023-11-19T07:19:05;100893.03;;;-7.63;100.00
59375;BME280;45172;55.006;73.460;2023-11-19T07:21:32;100893.06;;;-7.72;100.00
59375;BME280;45172;55.006;73.460;2023-11-19T07:23:59;100901.84;;;-7.70;100.00
59375;BME280;45172;55.006;73.460;2023-11-19T07:26:25;100909.13;;;-7.74;100.00
59375;BME280;45172;55.006;73.460;2023-11-19T07:28:51;100860.13;;;-7.93;100.00
59375;BME280;45172;55.006;73.460;2023-11-19T07:31:17;100901.25;;;-7.58;100.00
59375;BME280;45172;55.006;73.460;2023-11-19T07:33:47;100890.19;;;-7.57;100.00
59375;BME280;45172;55.006;73.460;2023-11-19T08:19:26;100912.91;;;-8.06;100.00
59375;BME280;45172;55.006;73.460;2023-11-19T08:22:21;100893.06;;;-8.33;100.00
59375;BME280;45172;55.006;73.460;2023-11-19T08:24:50;100881.91;;;-8.51;100.00
59375;BME280;45172;55.006;73.460;2023-11-19T08:27:17;100954.97;;;-8.05;100.00
59375;BME280;45172;55.006;73.460;2023-11-19T08:29:43;100964.06;;;-8.00;100.00
59375;BME280;45172;55.006;73.460;2023-11-19T08:32:11;100978.72;;;-7.90;100.00
59375;BME280;45172;55.006;73.460;2023-11-19T08:34:38;100994.00;;;-7.83;100.00
59375;BME280;45172;55.006;73.460;2023-11-19T08:37:06;100990.97;;;-7.88;100.00
59375;BME280;45172;55.006;73.460;2023-11-19T08:39:32;100991.72;;;-7.98;100.00
59375;BME280;45172;55.006;73.460;2023-11-19T08:42:00;100989.63;;;-8.02;100.00
59375;BME280;45172;55.006;73.460;2023-11-19T08:44:27;100995.53;;;-8.03;100.00
59375;BME280;45172;55.006;73.460;2023-11-19T08:46:54;101005.66;;;-7.95;100.00
59375;BME280;45172;55.006;73.460;2023-11-19T08:49:22;101010.19;;;-8.02;100.00
59375;BME280;45172;55.006;73.460;2023-11-19T08:51:52;101007.00;;;-8.08;100.00
59375;BME280;45172;55.006;73.460;2023-11-19T08:54:18;101011.72;;;-8.04;100.00
59375;BME280;45172;55.006;73.460;2023-11-19T08:56:46;101004.72;;;-8.14;100.00
59375;BME280;45172;55.006;73.460;2023-11-19T08:59:12;101013.00;;;-8.34;100.00
59375;BME280;45172;55.006;73.460;2023-11-19T09:01:39;101018.28;;;-8.32;100.00
59375;BME280;45172;55.006;73.460;2023-11-19T09:04:05;101021.00;;;-8.31;100.00
59375;BME280;45172;55.006;73.460;2023-11-19T09:06:32;101033.09;;;-8.39;100.00
59375;BME280;45172;55.006;73.460;2023-11-19T09:08:59;101043.22;;;-8.40;100.00
59375;BME280;45172;55.006;73.460;2023-11-19T09:11:31;101016.84;;;-8.64;100.00
59375;BME280;45172;55.006;73.460;2023-11-19T09:13:57;101037.28;;;-8.57;100.00
59375;BME280;45172;55.006;73.460;2023-11-19T09:16:23;101045.47;;;-8.52;100.00
59375;BME280;45172;55.006;73.460;2023-11-19T09:18:50;101038.28;;;-8.63;100.00
59375;BME280;45172;55.006;73.460;2023-11-19T09:21:16;101033.72;;;-8.75;100.00
59375;BME280;45172;55.006;73.460;2023-11-19T09:23:42;101062.63;;;-8.60;100.00
59375;BME280;45172;55.006;73.460;2023-11-19T09:26:09;101073.25;;;-8.57;100.00
59375;BME280;45172;55.006;73.460;2023-11-19T09:28:38;101077.31;;;-8.59;100.00
59375;BME280;45172;55.006;73.460;2023-11-19T09:31:17;101082.59;;;-8.66;100.00
59375;BME280;45172;55.006;73.460;2023-11-19T09:33:44;101071.31;;;-8.75;100.00
59375;BME280;45172;55.006;73.460;2023-11-19T09:36:12;101097.00;;;-8.75;100.00
59375;BME280;45172;55.006;73.460;2023-11-19T09:38:43;101078.00;;;-8.94;100.00
59375;BME280;45172;55.006;73.460;2023-11-19T09:41:10;101099.06;;;-8.89;100.00
59375;BME280;45172;55.006;73.460;2023-11-19T09:43:40;101093.88;;;-8.98;100.00
59375;BME280;45172;55.006;73.460;2023-11-19T09:46:09;101100.50;;;-9.00;100.00
59375;BME280;45172;55.006;73.460;2023-11-19T09:48:38;101102.25;;;-9.08;100.00
59375;BME280;45172;55.006;73.460;2023-11-19T09:51:04;101099.50;;;-9.09;100.00
59375;BME280;45172;55.006;73.460;2023-11-19T09:53:32;101083.13;;;-9.18;100.00
59375;BME280;45172;55.006;73.460;2023-11-19T09:56:05;101103.66;;;-9.18;100.00
59375;BME280;45172;55.006;73.460;2023-11-19T09:58:33;101062.47;;;-9.36;100.00
59375;BME280;45172;55.006;73.460;2023-11-19T10:01:00;101112.19;;;-9.11;100.00
59375;BME280;45172;55.006;73.460;2023-11-19T10:03:33;101117.16;;;-9.12;100.00
59375;BME280;45172;55.006;73.460;2023-11-19T10:06:06;101127.69;;;-9.18;100.00
59375;BME280;45172;55.006;73.460;2023-11-19T10:08:33;101092.69;;;-9.50;100.00
59375;BME280;45172;55.006;73.460;2023-11-19T10:10:59;101133.22;;;-9.22;100.00
59375;BME280;45172;55.006;73.460;2023-11-19T10:13:26;101120.00;;;-9.34;100.00
59375;BME280;45172;55.006;73.460;2023-11-19T10:15:55;101105.03;;;-9.38;100.00
59375;BME280;45172;55.006;73.460;2023-11-19T10:18:28;101123.81;;;-9.30;100.00
59375;BME280;45172;55.006;73.460;2023-11-19T10:20:54;101143.75;;;-9.28;100.00
59375;BME280;45172;55.006;73.460;2023-11-19T10:23:21;101131.50;;;-9.30;100.00
59375;BME280;45172;55.006;73.460;2023-11-19T10:25:47;101156.50;;;-9.20;100.00
59375;BME280;45172;55.006;73.460;2023-11-19T10:28:18;101142.53;;;-9.31;100.00
59375;BME280;45172;55.006;73.460;2023-11-19T10:30:44;101155.88;;;-9.43;100.00
59375;BME280;45172;55.006;73.460;2023-11-19T10:33:12;101173.00;;;-9.34;100.00
59375;BME280;45172;55.006;73.460;2023-11-19T10:35:58;101168.34;;;-9.46;100.00
59375;BME280;45172;55.006;73.460;2023-11-19T10:38:25;101180.50;;;-9.52;100.00
59375;BME280;45172;55.006;73.460;2023-11-19T10:40:53;101179.75;;;-9.51;100.00
59375;BME280;45172;55.006;73.460;2023-11-19T10:43:22;101158.16;;;-9.69;100.00
59375;BME280;45172;55.006;73.460;2023-11-19T10:45:49;101189.69;;;-9.54;100.00
59375;BME280;45172;55.006;73.460;2023-11-19T10:48:15;101146.31;;;-9.76;100.00
59375;BME280;45172;55.006;73.460;2023-11-19T10:50:43;101173.06;;;-9.58;100.00
59375;BME280;45172;55.006;73.460;2023-11-19T10:53:11;101172.88;;;-9.59;100.00
59375;BME280;45172;55.006;73.460;2023-11-19T10:55:41;101171.19;;;-9.75;100.00
59375;BME280;45172;55.006;73.460;2023-11-19T10:58:09;101184.38;;;-9.72;100.00
59375;BME280;45172;55.006;73.460;2023-11-19T11:00:55;101195.63;;;-9.63;100.00
59375;BME280;45172;55.006;73.460;2023-11-19T11:03:29;101184.63;;;-9.78;100.00
59375;BME280;45172;55.006;73.460;2023-11-19T11:05:58;101212.16;;;-9.68;100.00
59375;BME280;45172;55.006;73.460;2023-11-19T11:08:24;101201.66;;;-9.78;100.00
59375;BME280;45172;55.006;73.460;2023-11-19T11:10:54;101215.31;;;-9.70;100.00
59375;BME280;45172;55.006;73.460;2023-11-19T11:13:22;101223.75;;;-9.71;100.00
59375;BME280;45172;55.006;73.460;2023-11-19T11:15:50;101225.06;;;-9.75;100.00
59375;BME280;45172;55.006;73.460;2023-11-19T11:18:17;101225.66;;;-9.78;100.00
59375;BME280;45172;55.006;73.460;2023-11-19T11:20:49;101231.69;;;-9.77;100.00
59375;BME280;45172;55.006;73.460;2023-11-19T11:29:11;101232.16;;;-9.88;100.00
59375;BME280;45172;55.006;73.460;2023-11-19T11:37:54;101242.19;;;-9.83;100.00
59375;BME280;45172;55.006;73.460;2023-11-19T11:40:26;101237.78;;;-9.84;100.00
59375;BME280;45172;55.006;73.460;2023-11-19T11:42:53;101191.13;;;-10.12;100.00
59375;BME280;45172;55.006;73.460;2023-11-19T11:45:43;101239.78;;;-9.81;100.00
59375;BME280;45172;55.006;73.460;2023-11-19T11:48:14;101227.78;;;-9.89;100.00
59375;BME280;45172;55.006;73.460;2023-11-19T11:50:53;101229.16;;;-9.84;100.00
59375;BME280;45172;55.006;73.460;2023-11-19T11:53:23;101221.03;;;-9.96;100.00
59375;BME280;45172;55.006;73.460;2023-11-19T11:58:18;101261.38;;;-9.79;100.00
59375;BME280;45172;55.006;73.460;2023-11-19T12:00:47;101263.53;;;-9.75;100.00
59375;BME280;45172;55.006;73.460;2023-11-19T12:03:14;101258.75;;;-9.72;100.00
59375;BME280;45172;55.006;73.460;2023-11-19T12:05:45;101268.28;;;-9.71;100.00
59375;BME280;45172;55.006;73.460;2023-11-19T12:08:12;101253.69;;;-9.79;100.00
59375;BME280;45172;55.006;73.460;2023-11-19T12:10:47;101263.38;;;-9.77;100.00
59375;BME280;45172;55.006;73.460;2023-11-19T12:13:15;101265.94;;;-9.77;100.00
59375;BME280;45172;55.006;73.460;2023-11-19T12:18:34;101275.91;;;-9.87;100.00
59375;BME280;45172;55.006;73.460;2023-11-19T12:21:01;101258.00;;;-9.94;100.00
59375;BME280;45172;55.006;73.460;2023-11-19T12:23:46;101283.25;;;-9.90;100.00
59375;BME280;45172;55.006;73.460;2023-11-19T12:26:33;101289.69;;;-9.94;100.00
59375;BME280;45172;55.006;73.460;2023-11-19T12:29:00;101288.75;;;-9.94;100.00
59375;BME280;45172;55.006;73.460;2023-11-19T12:31:33;101306.38;;;-9.97;100.00
59375;BME280;45172;55.006;73.460;2023-11-19T12:34:05;101295.63;;;-10.02;100.00
59375;BME280;45172;55.006;73.460;2023-11-19T12:36:32;101256.22;;;-10.26;100.00
59375;BME280;45172;55.006;73.460;2023-11-19T12:39:06;101306.59;;;-10.03;100.00
59375;BME280;45172;55.006;73.460;2023-11-19T12:41:48;101286.94;;;-10.19;100.00
59375;BME280;45172;55.006;73.460;2023-11-19T12:44:15;101314.69;;;-10.07;100.00
59375;BME280;45172;55.006;73.460;2023-11-19T12:47:19;101303.56;;;-10.15;100.00
59375;BME280;45172;55.006;73.460;2023-11-19T12:49:58;101274.25;;;-10.40;100.00
59375;BME280;45172;55.006;73.460;2023-11-19T12:52:24;101309.25;;;-10.18;100.00
59375;BME280;45172;55.006;73.460;2023-11-19T12:54:50;101318.59;;;-10.18;100.00
59375;BME280;45172;55.006;73.460;2023-11-19T12:57:40;101322.44;;;-10.22;100.00
59375;BME280;45172;55.006;73.460;2023-11-19T13:00:07;101312.09;;;-10.30;100.00
59375;BME280;45172;55.006;73.460;2023-11-19T13:02:57;101322.84;;;-10.26;100.00
59375;BME280;45172;55.006;73.460;2023-11-19T13:08:02;101331.66;;;-10.31;100.00
59375;BME280;45172;55.006;73.460;2023-11-19T13:10:31;101345.03;;;-10.34;100.00
59375;BME280;45172;55.006;73.460;2023-11-19T13:13:08;101346.16;;;-10.39;100.00
59375;BME280;45172;55.006;73.460;2023-11-19T13:15:49;101345.25;;;-10.39;100.00
59375;BME280;45172;55.006;73.460;2023-11-19T13:18:16;101330.47;;;-10.49;100.00
59375;BME280;45172;55.006;73.460;2023-11-19T13:20:42;101319.75;;;-10.61;100.00
59375;BME280;45172;55.006;73.460;2023-11-19T13:23:19;101316.09;;;-10.63;100.00
59375;BME280;45172;55.006;73.460;2023-11-19T13:25:46;101331.25;;;-10.57;100.00
59375;BME280;45172;55.006;73.460;2023-11-19T13:28:12;101346.81;;;-10.56;100.00
59375;BME280;45172;55.006;73.460;2023-11-19T13:30:55;101338.41;;;-10.62;100.00
59375;BME280;45172;55.006;73.460;2023-11-19T13:33:22;101305.06;;;-10.93;100.00
59375;BME280;45172;55.006;73.460;2023-11-19T13:35:52;101331.50;;;-10.78;100.00
59375;BME280;45172;55.006;73.460;2023-11-19T13:38:19;101350.69;;;-10.67;100.00
59375;BME280;45172;55.006;73.460;2023-11-19T13:40:45;101352.16;;;-10.69;100.00
59375;BME280;45172;55.006;73.460;2023-11-19T13:43:11;101334.63;;;-10.80;100.00
59375;BME280;45172;55.006;73.460;2023-11-19T13:45:38;101342.28;;;-10.80;100.00
59375;BME280;45172;55.006;73.460;2023-11-19T13:48:05;101349.25;;;-10.79;100.00
59375;BME280;45172;55.006;73.460;2023-11-19T13:50:31;101346.34;;;-10.82;100.00
59375;BME280;45172;55.006;73.460;2023-11-19T13:53:00;101339.22;;;-10.85;100.00
59375;BME280;45172;55.006;73.460;2023-11-19T13:55:26;101347.44;;;-10.88;100.00
59375;BME280;45172;55.006;73.460;2023-11-19T13:57:52;101349.47;;;-10.92;100.00
59375;BME280;45172;55.006;73.460;2023-11-19T14:00:18;101354.59;;;-10.92;100.00
59375;BME280;45172;55.006;73.460;2023-11-19T14:02:46;101347.09;;;-10.98;100.00
59375;BME280;45172;55.006;73.460;2023-11-19T14:05:16;101360.09;;;-10.96;100.00
59375;BME280;45172;55.006;73.460;2023-11-19T14:07:45;101355.88;;;-11.03;100.00
59375;BME280;45172;55.006;73.460;2023-11-19T14:10:15;101363.22;;;-11.06;100.00
59375;BME280;45172;55.006;73.460;2023-11-19T14:12:41;101375.28;;;-11.05;100.00
59375;BME280;45172;55.006;73.460;2023-11-19T14:15:09;101375.47;;;-11.11;100.00
59375;BME280;45172;55.006;73.460;2023-11-19T14:17:39;101369.06;;;-11.15;100.00
59375;BME280;45172;55.006;73.460;2023-11-19T14:20:06;101341.47;;;-11.32;100.00
59375;BME280;45172;55.006;73.460;2023-11-19T14:22:44;101365.97;;;-11.19;100.00
59375;BME280;45172;55.006;73.460;2023-11-19T14:25:11;101369.97;;;-11.21;100.00
59375;BME280;45172;55.006;73.460;2023-11-19T14:27:39;101351.16;;;-11.36;100.00
59375;BME280;45172;55.006;73.460;2023-11-19T14:30:08;101323.56;;;-11.53;100.00
59375;BME280;45172;55.006;73.460;2023-11-19T14:32:38;101372.91;;;-11.33;100.00
59375;BME280;45172;55.006;73.460;2023-11-19T14:35:06;101372.19;;;-11.32;100.00
59375;BME280;45172;55.006;73.460;2023-11-19T14:37:32;101382.06;;;-11.35;100.00
59375;BME280;45172;55.006;73.460;2023-11-19T14:39:59;101373.84;;;-11.39;100.00
59375;BME280;45172;55.006;73.460;2023-11-19T14:42:26;101382.06;;;-11.42;100.00
59375;BME280;45172;55.006;73.460;2023-11-19T14:44:53;101372.91;;;-11.40;100.00
59375;BME280;45172;55.006;73.460;2023-11-19T14:47:20;101368.16;;;-11.37;100.00
59375;BME280;45172;55.006;73.460;2023-11-19T14:49:46;101361.59;;;-11.35;100.00
59375;BME280;45172;55.006;73.460;2023-11-19T14:52:13;101343.69;;;-11.42;100.00
59375;BME280;45172;55.006;73.460;2023-11-19T14:54:39;101381.47;;;-11.18;100.00
59375;BME280;45172;55.006;73.460;2023-11-19T14:57:06;101358.47;;;-11.32;100.00
59375;BME280;45172;55.006;73.460;2023-11-19T14:59:36;101364.69;;;-11.23;100.00
59375;BME280;45172;55.006;73.460;2023-11-19T15:02:03;101385.50;;;-11.20;100.00
59375;BME280;45172;55.006;73.460;2023-11-19T15:04:29;101379.50;;;-11.20;100.00
59375;BME280;45172;55.006;73.460;2023-11-19T15:07:05;101363.97;;;-11.36;100.00
59375;BME280;45172;55.006;73.460;2023-11-19T15:09:31;101389.75;;;-11.27;100.00
59375;BME280;45172;55.006;73.460;2023-11-19T15:11:58;101371.63;;;-11.44;100.00
59375;BME280;45172;55.006;73.460;2023-11-19T15:14:25;101371.44;;;-11.45;100.00
59375;BME280;45172;55.006;73.460;2023-11-19T15:16:51;101366.50;;;-11.58;100.00
59375;BME280;45172;55.006;73.460;2023-11-19T15:19:18;101347.69;;;-11.66;100.00
59375;BME280;45172;55.006;73.460;2023-11-19T15:21:46;101368.50;;;-11.63;100.00
59375;BME280;45172;55.006;73.460;2023-11-19T15:24:12;101337.06;;;-11.91;100.00
59375;BME280;45172;55.006;73.460;2023-11-19T15:26:39;101306.97;;;-12.08;100.00
59375;BME280;45172;55.006;73.460;2023-11-19T15:29:05;101384.41;;;-11.58;100.00
59375;BME280;45172;55.006;73.460;2023-11-19T15:31:32;101367.94;;;-11.75;100.00
59375;BME280;45172;55.006;73.460;2023-11-19T15:33:58;101374.34;;;-11.78;100.00
59375;BME280;45172;55.006;73.460;2023-11-19T15:36:24;101334.69;;;-12.04;100.00
59375;BME280;45172;55.006;73.460;2023-11-19T15:38:50;101374.88;;;-11.81;100.00
59375;BME280;45172;55.006;73.460;2023-11-19T15:41:16;101388.22;;;-11.76;100.00
59375;BME280;45172;55.006;73.460;2023-11-19T15:43:43;101391.69;;;-11.76;100.00
59375;BME280;45172;55.006;73.460;2023-11-19T15:46:10;101371.00;;;-11.99;100.00
59375;BME280;45172;55.006;73.460;2023-11-19T15:48:56;101382.50;;;-11.95;100.00
59375;BME280;45172;55.006;73.460;2023-11-19T15:51:23;101359.91;;;-12.07;100.00
59375;BME280;45172;55.006;73.460;2023-11-19T15:53:49;101407.75;;;-11.84;100.00
59375;BME280;45172;55.006;73.460;2023-11-19T15:56:15;101366.44;;;-12.09;100.00
59375;BME280;45172;55.006;73.460;2023-11-19T15:58:42;101376.66;;;-12.16;100.00
59375;BME280;45172;55.006;73.460;2023-11-19T16:01:08;101403.50;;;-11.98;100.00
59375;BME280;45172;55.006;73.460;2023-11-19T16:03:34;101365.69;;;-12.22;100.00
59375;BME280;45172;55.006;73.460;2023-11-19T16:06:01;101407.91;;;-11.97;100.00
59375;BME280;45172;55.006;73.460;2023-11-19T16:08:28;101386.31;;;-12.14;100.00
59375;BME280;45172;55.006;73.460;2023-11-19T16:10:54;101405.53;;;-12.03;100.00
59375;BME280;45172;55.006;73.460;2023-11-19T16:13:21;101353.41;;;-12.40;100.00
59375;BME280;45172;55.006;73.460;2023-11-19T16:15:48;101398.38;;;-12.20;100.00
59375;BME280;45172;55.006;73.460;2023-11-19T16:18:14;101420.69;;;-12.04;100.00
59375;BME280;45172;55.006;73.460;2023-11-19T16:20:40;101415.19;;;-12.07;100.00
59375;BME280;45172;55.006;73.460;2023-11-19T16:23:08;101430.88;;;-12.12;100.00
59375;BME280;45172;55.006;73.460;2023-11-19T16:25:34;101436.31;;;-12.16;100.00
59375;BME280;45172;55.006;73.460;2023-11-19T16:28:03;101433.56;;;-12.17;100.00
59375;BME280;45172;55.006;73.460;2023-11-19T16:30:29;101431.56;;;-12.20;100.00
59375;BME280;45172;55.006;73.460;2023-11-19T16:32:58;101441.19;;;-12.25;100.00
59375;BME280;45172;55.006;73.460;2023-11-19T16:35:25;101430.78;;;-12.33;100.00
59375;BME280;45172;55.006;73.460;2023-11-19T16:37:51;101440.84;;;-12.28;100.00
59375;BME280;45172;55.006;73.460;2023-11-19T16:40:18;101444.06;;;-12.36;100.00
59375;BME280;45172;55.006;73.460;2023-11-19T16:42:48;101422.31;;;-12.47;100.00
59375;BME280;45172;55.006;73.460;2023-11-19T16:45:15;101441.69;;;-12.42;100.00
59375;BME280;45172;55.006;73.460;2023-11-19T16:47:41;101427.38;;;-12.54;100.00
59375;BME280;45172;55.006;73.460;2023-11-19T16:50:08;101454.25;;;-12.43;100.00
59375;BME280;45172;55.006;73.460;2023-11-19T16:52:34;101407.28;;;-12.66;100.00
59375;BME280;45172;55.006;73.460;2023-11-19T16:55:00;101457.34;;;-12.46;100.00
59375;BME280;45172;55.006;73.460;2023-11-19T16:57:43;101460.78;;;-12.53;100.00
59375;BME280;45172;55.006;73.460;2023-11-19T17:00:12;101453.28;;;-12.58;100.00
59375;BME280;45172;55.006;73.460;2023-11-19T17:02:39;101452.53;;;-12.57;100.00
59375;BME280;45172;55.006;73.460;2023-11-19T17:05:09;101415.56;;;-12.81;100.00
59375;BME280;45172;55.006;73.460;2023-11-19T17:07:36;101462.88;;;-12.63;100.00
59375;BME280;45172;55.006;73.460;2023-11-19T17:10:03;101462.72;;;-12.64;100.00
59375;BME280;45172;55.006;73.460;2023-11-19T17:12:30;101460.47;;;-12.69;100.00
59375;BME280;45172;55.006;73.460;2023-11-19T17:14:57;101467.97;;;-12.70;100.00
59375;BME280;45172;55.006;73.460;2023-11-19T17:17:36;101464.63;;;-12.76;100.00
59375;BME280;45172;55.006;73.460;2023-11-19T17:20:04;101471.34;;;-12.77;100.00
59375;BME280;45172;55.006;73.460;2023-11-19T17:22:35;101476.47;;;-12.77;100.00
59375;BME280;45172;55.006;73.460;2023-11-19T17:25:02;101471.72;;;-12.81;100.00
59375;BME280;45172;55.006;73.460;2023-11-19T17:27:29;101425.94;;;-13.07;100.00
59375;BME280;45172;55.006;73.460;2023-11-19T17:29:57;101469.28;;;-12.87;100.00
59375;BME280;45172;55.006;73.460;2023-11-19T17:32:23;101471.59;;;-12.96;100.00
59375;BME280;45172;55.006;73.460;2023-11-19T17:34:50;101453.47;;;-13.04;100.00
59375;BME280;45172;55.006;73.460;2023-11-19T17:37:17;101479.03;;;-12.97;100.00
59375;BME280;45172;55.006;73.460;2023-11-19T17:39:44;101480.09;;;-13.02;100.00
59375;BME280;45172;55.006;73.460;2023-11-19T17:42:10;101459.03;;;-13.14;100.00
59375;BME280;45172;55.006;73.460;2023-11-19T17:44:36;101432.09;;;-13.32;100.00
59375;BME280;45172;55.006;73.460;2023-11-19T17:47:08;101473.00;;;-13.05;100.00
59375;BME280;45172;55.006;73.460;2023-11-19T17:49:34;101480.75;;;-13.11;100.00
59375;BME280;45172;55.006;73.460;2023-11-19T17:52:01;101490.56;;;-13.14;100.00
59375;BME280;45172;55.006;73.460;2023-11-19T17:54:28;101426.03;;;-13.40;100.00
59375;BME280;45172;55.006;73.460;2023-11-19T17:56:55;101430.19;;;-13.41;100.00
59375;BME280;45172;55.006;73.460;2023-11-19T17:59:22;101461.88;;;-13.26;100.00
59375;BME280;45172;55.006;73.460;2023-11-19T18:01:51;101455.91;;;-13.39;100.00
59375;BME280;45172;55.006;73.460;2023-11-19T18:04:25;101478.47;;;-13.22;100.00
59375;BME280;45172;55.006;73.460;2023-11-19T18:06:52;101461.06;;;-13.32;100.00
59375;BME280;45172;55.006;73.460;2023-11-19T18:09:19;101479.50;;;-13.27;100.00
59375;BME280;45172;55.006;73.460;2023-11-19T18:11:46;101451.69;;;-13.46;100.00
59375;BME280;45172;55.006;73.460;2023-11-19T18:14:13;101422.00;;;-13.66;100.00
59375;BME280;45172;55.006;73.460;2023-11-19T18:16:39;101477.09;;;-13.33;100.00
59375;BME280;45172;55.006;73.460;2023-11-19T18:19:06;101479.44;;;-13.35;100.00
59375;BME280;45172;55.006;73.460;2023-11-19T18:21:33;101445.72;;;-13.59;100.00
59375;BME280;45172;55.006;73.460;2023-11-19T18:23:59;101483.44;;;-13.37;100.00
59375;BME280;45172;55.006;73.460;2023-11-19T18:26:27;101490.16;;;-13.37;100.00
59375;BME280;45172;55.006;73.460;2023-11-19T18:28:57;101452.88;;;-13.57;100.00
59375;BME280;45172;55.006;73.460;2023-11-19T18:31:23;101479.78;;;-13.39;100.00
59375;BME280;45172;55.006;73.460;2023-11-19T18:33:51;101491.97;;;-13.36;100.00
59375;BME280;45172;55.006;73.460;2023-11-19T18:36:17;101484.75;;;-13.33;100.00
59375;BME280;45172;55.006;73.460;2023-11-19T18:38:44;101447.63;;;-13.51;100.00
59375;BME280;45172;55.006;73.460;2023-11-19T18:41:10;101472.38;;;-13.30;100.00
59375;BME280;45172;55.006;73.460;2023-11-19T18:43:38;101465.78;;;-13.35;100.00
59375;BME280;45172;55.006;73.460;2023-11-19T18:46:05;101486.34;;;-13.21;100.00
59375;BME280;45172;55.006;73.460;2023-11-19T18:48:32;101460.88;;;-13.33;100.00
59375;BME280;45172;55.006;73.460;2023-11-19T18:50:58;101461.28;;;-13.30;100.00
59375;BME280;45172;55.006;73.460;2023-11-19T18:53:26;101473.63;;;-13.13;100.00
59375;BME280;45172;55.006;73.460;2023-11-19T18:55:53;101476.38;;;-13.12;100.00
59375;BME280;45172;55.006;73.460;2023-11-19T18:58:19;101469.44;;;-13.13;100.00
59375;BME280;45172;55.006;73.460;2023-11-19T19:00:45;101445.97;;;-13.30;100.00
59375;BME280;45172;55.006;73.460;2023-11-19T19:03:11;101478.09;;;-13.05;100.00
59375;BME280;45172;55.006;73.460;2023-11-19T19:05:39;101462.72;;;-13.12;100.00
59375;BME280;45172;55.006;73.460;2023-11-19T19:08:05;101471.03;;;-13.00;100.00
59375;BME280;45172;55.006;73.460;2023-11-19T19:10:31;101479.41;;;-13.01;100.00
59375;BME280;45172;55.006;73.460;2023-11-19T19:12:58;101434.91;;;-13.24;100.00
59375;BME280;45172;55.006;73.460;2023-11-19T19:15:24;101478.66;;;-13.00;100.00
59375;BME280;45172;55.006;73.460;2023-11-19T19:17:52;101475.91;;;-13.02;100.00
59375;BME280;45172;55.006;73.460;2023-11-19T19:20:18;101469.81;;;-13.10;100.00
59375;BME280;45172;55.006;73.460;2023-11-19T19:22:44;101486.50;;;-12.99;100.00
59375;BME280;45172;55.006;73.460;2023-11-19T19:25:11;101442.34;;;-13.25;100.00
59375;BME280;45172;55.006;73.460;2023-11-19T19:27:39;101465.84;;;-13.08;100.00
59375;BME280;45172;55.006;73.460;2023-11-19T19:30:07;101467.47;;;-13.08;100.00
59375;BME280;45172;55.006;73.460;2023-11-19T19:32:34;101469.78;;;-12.97;100.00
59375;BME280;45172;55.006;73.460;2023-11-19T19:35:00;101452.56;;;-13.05;100.00
59375;BME280;45172;55.006;73.460;2023-11-19T19:37:26;101480.94;;;-12.89;100.00
59375;BME280;45172;55.006;73.460;2023-11-19T19:39:53;101491.19;;;-12.82;100.00
59375;BME280;45172;55.006;73.460;2023-11-19T19:42:30;101489.38;;;-12.83;100.00
59375;BME280;45172;55.006;73.460;2023-11-19T19:44:57;101452.69;;;-13.11;100.00
59375;BME280;45172;55.006;73.460;2023-11-19T19:47:23;101488.44;;;-12.83;100.00
59375;BME280;45172;55.006;73.460;2023-11-19T19:49:49;101493.97;;;-12.80;100.00
59375;BME280;45172;55.006;73.460;2023-11-19T19:52:16;101497.97;;;-12.75;100.00
59375;BME280;45172;55.006;73.460;2023-11-19T19:54:43;101449.69;;;-13.01;100.00
59375;BME280;45172;55.006;73.460;2023-11-19T19:57:09;101492.72;;;-12.76;100.00
59375;BME280;45172;55.006;73.460;2023-11-19T19:59:36;101482.97;;;-12.86;100.00